sensor_id;sensor_type;location;lat;lon;timestamp;P1;durP1;ratioP1;P2;durP2;ratioP2
18720;SDS011;9489;50.948;3.114;2024-02-16T00:00:58;7.20;;;5.35;;
18720;SDS011;9489;50.948;3.114;2024-02-16T00:03:25;5.35;;;4.65;;
18720;SDS011;9489;50.948;3.114;2024-02-16T00:05:51;5.93;;;5.25;;
18720;SDS011;9489;50.948;3.114;2024-02-16T00:08:18;6.20;;;5.00;;
18720;SDS011;9489;50.948;3.114;2024-02-16T00:10:44;5.90;;;5.40;;
18720;SDS011;9489;50.948;3.114;2024-02-16T00:13:09;6.05;;;5.50;;
18720;SDS011;9489;50.948;3.114;2024-02-16T00:15:35;5.65;;;5.15;;
18720;SDS011;9489;50.948;3.114;2024-02-16T00:18:01;6.63;;;5.47;;
18720;SDS011;9489;50.948;3.114;2024-02-16T00:20:28;6.93;;;5.55;;
18720;SDS011;9489;50.948;3.114;2024-02-16T00:22:54;6.05;;;5.43;;
18720;SDS011;9489;50.948;3.114;2024-02-16T00:25:20;6.50;;;5.05;;
18720;SDS011;9489;50.948;3.114;2024-02-16T00:27:45;5.40;;;4.72;;
18720;SDS011;9489;50.948;3.114;2024-02-16T00:30:11;5.60;;;5.00;;
18720;SDS011;9489;50.948;3.114;2024-02-16T00:32:37;5.68;;;5.00;;
18720;SDS011;9489;50.948;3.114;2024-02-16T00:35:03;5.28;;;4.72;;
18720;SDS011;9489;50.948;3.114;2024-02-16T00:37:29;6.15;;;5.32;;
18720;SDS011;9489;50.948;3.114;2024-02-16T00:39:54;5.82;;;5.22;;
18720;SDS011;9489;50.948;3.114;2024-02-16T00:42:21;5.88;;;5.30;;
18720;SDS011;9489;50.948;3.114;2024-02-16T00:44:48;6.07;;;5.00;;
18720;SDS011;9489;50.948;3.114;2024-02-16T00:47:15;5.70;;;5.20;;
18720;SDS011;9489;50.948;3.114;2024-02-16T00:49:41;6.47;;;5.25;;
18720;SDS011;9489;50.948;3.114;2024-02-16T00:52:09;6.22;;;5.60;;
18720;SDS011;9489;50.948;3.114;2024-02-16T00:54:35;7.07;;;5.50;;
18720;SDS011;9489;50.948;3.114;2024-02-16T00:57:01;6.13;;;5.53;;
18720;SDS011;9489;50.948;3.114;2024-02-16T00:59:29;5.75;;;5.20;;
18720;SDS011;9489;50.948;3.114;2024-02-16T01:01:55;6.35;;;5.75;;
18720;SDS011;9489;50.948;3.114;2024-02-16T01:04:23;6.00;;;5.50;;
18720;SDS011;9489;50.948;3.114;2024-02-16T01:06:49;5.68;;;5.18;;
18720;SDS011;9489;50.948;3.114;2024-02-16T01:09:15;5.32;;;4.90;;
18720;SDS011;9489;50.948;3.114;2024-02-16T01:11:41;5.38;;;4.80;;
18720;SDS011;9489;50.948;3.114;2024-02-16T01:14:07;5.88;;;5.28;;
18720;SDS011;9489;50.948;3.114;2024-02-16T01:16:33;6.50;;;4.82;;
18720;SDS011;9489;50.948;3.114;2024-02-16T01:18:58;5.93;;;4.95;;
18720;SDS011;9489;50.948;3.114;2024-02-16T01:21:24;5.82;;;5.20;;
18720;SDS011;9489;50.948;3.114;2024-02-16T01:23:50;7.20;;;4.80;;
18720;SDS011;9489;50.948;3.114;2024-02-16T01:26:15;5.63;;;5.13;;
18720;SDS011;9489;50.948;3.114;2024-02-16T01:28:41;6.03;;;5.18;;
18720;SDS011;9489;50.948;3.114;2024-02-16T01:31:07;5.55;;;5.05;;
18720;SDS011;9489;50.948;3.114;2024-02-16T01:33:35;5.53;;;5.03;;
18720;SDS011;9489;50.948;3.114;2024-02-16T01:36:02;6.40;;;4.72;;
18720;SDS011;9489;50.948;3.114;2024-02-16T01:38:28;5.72;;;5.15;;
18720;SDS011;9489;50.948;3.114;2024-02-16T01:40:54;5.53;;;5.03;;
18720;SDS011;9489;50.948;3.114;2024-02-16T01:43:20;5.03;;;4.47;;
18720;SDS011;9489;50.948;3.114;2024-02-16T01:45:46;6.20;;;5.28;;
18720;SDS011;9489;50.948;3.114;2024-02-16T01:48:11;6.25;;;5.65;;
18720;SDS011;9489;50.948;3.114;2024-02-16T01:50:42;6.03;;;5.22;;
18720;SDS011;9489;50.948;3.114;2024-02-16T01:53:09;6.30;;;5.70;;
18720;SDS011;9489;50.948;3.114;2024-02-16T01:55:36;6.35;;;5.05;;
18720;SDS011;9489;50.948;3.114;2024-02-16T01:58:02;5.43;;;4.88;;
18720;SDS011;9489;50.948;3.114;2024-02-16T02:00:29;5.03;;;4.47;;
18720;SDS011;9489;50.948;3.114;2024-02-16T02:02:55;5.72;;;5.18;;
18720;SDS011;9489;50.948;3.114;2024-02-16T02:05:22;5.75;;;5.25;;
18720;SDS011;9489;50.948;3.114;2024-02-16T02:07:48;5.40;;;4.90;;
18720;SDS011;9489;50.948;3.114;2024-02-16T02:10:14;6.13;;;5.53;;
18720;SDS011;9489;50.948;3.114;2024-02-16T02:12:40;5.63;;;5.13;;
18720;SDS011;9489;50.948;3.114;2024-02-16T02:15:07;5.40;;;4.88;;
18720;SDS011;9489;50.948;3.114;2024-02-16T02:17:34;5.80;;;5.20;;
18720;SDS011;9489;50.948;3.114;2024-02-16T02:20:00;6.00;;;5.50;;
18720;SDS011;9489;50.948;3.114;2024-02-16T02:22:27;7.00;;;5.32;;
18720;SDS011;9489;50.948;3.114;2024-02-16T02:24:53;5.97;;;5.38;;
18720;SDS011;9489;50.948;3.114;2024-02-16T02:27:20;5.93;;;5.05;;
18720;SDS011;9489;50.948;3.114;2024-02-16T02:29:46;6.13;;;5.32;;
18720;SDS011;9489;50.948;3.114;2024-02-16T02:32:12;6.13;;;5.10;;
18720;SDS011;9489;50.948;3.114;2024-02-16T02:34:38;5.22;;;4.82;;
18720;SDS011;9489;50.948;3.114;2024-02-16T02:37:04;6.28;;;5.45;;
18720;SDS011;9489;50.948;3.114;2024-02-16T02:39:30;5.03;;;4.53;;
18720;SDS011;9489;50.948;3.114;2024-02-16T02:41:56;5.95;;;4.93;;
18720;SDS011;9489;50.948;3.114;2024-02-16T02:44:23;7.30;;;5.40;;
18720;SDS011;9489;50.948;3.114;2024-02-16T02:46:49;6.13;;;5.53;;
18720;SDS011;9489;50.948;3.114;2024-02-16T02:49:15;5.60;;;5.10;;
18720;SDS011;9489;50.948;3.114;2024-02-16T02:51:41;6.07;;;5.47;;
18720;SDS011;9489;50.948;3.114;2024-02-16T02:54:07;7.75;;;5.53;;
18720;SDS011;9489;50.948;3.114;2024-02-16T02:56:32;5.90;;;5.28;;
18720;SDS011;9489;50.948;3.114;2024-02-16T02:58:58;5.82;;;5.20;;
18720;SDS011;9489;50.948;3.114;2024-02-16T03:01:23;6.20;;;5.60;;
18720;SDS011;9489;50.948;3.114;2024-02-16T03:03:49;5.43;;;4.90;;
18720;SDS011;9489;50.948;3.114;2024-02-16T03:06:18;6.00;;;5.13;;
18720;SDS011;9489;50.948;3.114;2024-02-16T03:08:44;6.30;;;5.70;;
18720;SDS011;9489;50.948;3.114;2024-02-16T03:11:10;8.40;;;5.95;;
18720;SDS011;9489;50.948;3.114;2024-02-16T03:13:36;6.72;;;6.03;;
18720;SDS011;9489;50.948;3.114;2024-02-16T03:16:02;6.07;;;5.45;;
18720;SDS011;9489;50.948;3.114;2024-02-16T03:18:31;5.95;;;5.45;;
18720;SDS011;9489;50.948;3.114;2024-02-16T03:20:59;6.63;;;5.80;;
18720;SDS011;9489;50.948;3.114;2024-02-16T03:23:25;6.45;;;5.80;;
18720;SDS011;9489;50.948;3.114;2024-02-16T03:25:50;5.85;;;5.30;;
18720;SDS011;9489;50.948;3.114;2024-02-16T03:28:16;6.18;;;5.57;;
18720;SDS011;9489;50.948;3.114;2024-02-16T03:30:42;6.20;;;5.60;;
18720;SDS011;9489;50.948;3.114;2024-02-16T03:33:08;6.38;;;5.68;;
18720;SDS011;9489;50.948;3.114;2024-02-16T03:35:35;5.65;;;5.15;;
18720;SDS011;9489;50.948;3.114;2024-02-16T03:38:01;6.82;;;5.70;;
18720;SDS011;9489;50.948;3.114;2024-02-16T03:40:28;7.15;;;6.20;;
18720;SDS011;9489;50.948;3.114;2024-02-16T03:42:53;6.28;;;5.50;;
18720;SDS011;9489;50.948;3.114;2024-02-16T03:45:20;5.45;;;4.95;;
18720;SDS011;9489;50.948;3.114;2024-02-16T03:47:46;5.75;;;5.32;;
18720;SDS011;9489;50.948;3.114;2024-02-16T03:50:14;7.22;;;5.28;;
18720;SDS011;9489;50.948;3.114;2024-02-16T03:52:39;6.60;;;5.63;;
18720;SDS011;9489;50.948;3.114;2024-02-16T03:55:06;6.45;;;5.28;;
18720;SDS011;9489;50.948;3.114;2024-02-16T03:57:32;5.88;;;5.38;;
18720;SDS011;9489;50.948;3.114;2024-02-16T03:59:58;5.97;;;5.47;;
18720;SDS011;9489;50.948;3.114;2024-02-16T04:02:24;7.57;;;5.07;;
18720;SDS011;9489;50.948;3.114;2024-02-16T04:04:50;6.57;;;5.20;;
18720;SDS011;9489;50.948;3.114;2024-02-16T04:07:16;7.30;;;5.30;;
18720;SDS011;9489;50.948;3.114;2024-02-16T04:09:42;5.30;;;4.80;;
18720;SDS011;9489;50.948;3.114;2024-02-16T04:12:08;6.85;;;5.97;;
18720;SDS011;9489;50.948;3.114;2024-02-16T04:14:35;6.45;;;5.85;;
18720;SDS011;9489;50.948;3.114;2024-02-16T04:17:01;7.05;;;5.53;;
18720;SDS011;9489;50.948;3.114;2024-02-16T04:19:26;5.63;;;5.05;;
18720;SDS011;9489;50.948;3.114;2024-02-16T04:21:52;6.35;;;5.75;;
18720;SDS011;9489;50.948;3.114;2024-02-16T04:24:18;5.60;;;5.00;;
18720;SDS011;9489;50.948;3.114;2024-02-16T04:26:44;7.30;;;5.68;;
18720;SDS011;9489;50.948;3.114;2024-02-16T04:29:09;5.68;;;5.18;;
18720;SDS011;9489;50.948;3.114;2024-02-16T04:31:38;6.28;;;5.68;;
18720;SDS011;9489;50.948;3.114;2024-02-16T04:34:05;6.70;;;5.22;;
18720;SDS011;9489;50.948;3.114;2024-02-16T04:36:31;6.05;;;5.30;;
18720;SDS011;9489;50.948;3.114;2024-02-16T04:38:56;5.93;;;4.90;;
18720;SDS011;9489;50.948;3.114;2024-02-16T04:41:22;7.70;;;5.50;;
18720;SDS011;9489;50.948;3.114;2024-02-16T04:43:47;6.85;;;6.10;;
18720;SDS011;9489;50.948;3.114;2024-02-16T04:46:16;6.18;;;5.57;;
18720;SDS011;9489;50.948;3.114;2024-02-16T04:48:42;7.15;;;6.18;;
18720;SDS011;9489;50.948;3.114;2024-02-16T04:51:08;5.78;;;5.28;;
18720;SDS011;9489;50.948;3.114;2024-02-16T04:53:33;6.30;;;5.70;;
18720;SDS011;9489;50.948;3.114;2024-02-16T04:55:59;6.50;;;5.10;;
18720;SDS011;9489;50.948;3.114;2024-02-16T04:58:27;5.97;;;5.38;;
18720;SDS011;9489;50.948;3.114;2024-02-16T05:00:52;6.32;;;5.32;;
18720;SDS011;9489;50.948;3.114;2024-02-16T05:03:18;7.45;;;5.55;;
18720;SDS011;9489;50.948;3.114;2024-02-16T05:05:44;6.15;;;5.43;;
18720;SDS011;9489;50.948;3.114;2024-02-16T05:08:10;8.65;;;6.20;;
18720;SDS011;9489;50.948;3.114;2024-02-16T05:10:36;6.35;;;5.38;;
18720;SDS011;9489;50.948;3.114;2024-02-16T05:13:02;5.68;;;5.20;;
18720;SDS011;9489;50.948;3.114;2024-02-16T05:15:28;5.65;;;5.15;;
18720;SDS011;9489;50.948;3.114;2024-02-16T05:17:54;6.18;;;5.57;;
18720;SDS011;9489;50.948;3.114;2024-02-16T05:20:20;5.53;;;5.10;;
18720;SDS011;9489;50.948;3.114;2024-02-16T05:22:47;5.85;;;5.35;;
18720;SDS011;9489;50.948;3.114;2024-02-16T05:25:14;6.40;;;5.78;;
18720;SDS011;9489;50.948;3.114;2024-02-16T05:27:43;6.68;;;5.97;;
18720;SDS011;9489;50.948;3.114;2024-02-16T05:30:10;6.05;;;5.43;;
18720;SDS011;9489;50.948;3.114;2024-02-16T05:32:38;5.95;;;5.35;;
18720;SDS011;9489;50.948;3.114;2024-02-16T05:35:04;6.28;;;5.32;;
18720;SDS011;9489;50.948;3.114;2024-02-16T05:37:46;7.78;;;5.57;;
18720;SDS011;9489;50.948;3.114;2024-02-16T05:40:17;6.57;;;5.97;;
18720;SDS011;9489;50.948;3.114;2024-02-16T05:42:54;6.63;;;5.90;;
18720;SDS011;9489;50.948;3.114;2024-02-16T05:45:23;6.75;;;5.95;;
18720;SDS011;9489;50.948;3.114;2024-02-16T05:47:49;8.00;;;6.10;;
18720;SDS011;9489;50.948;3.114;2024-02-16T05:50:16;6.43;;;5.82;;
18720;SDS011;9489;50.948;3.114;2024-02-16T05:52:42;7.03;;;6.43;;
18720;SDS011;9489;50.948;3.114;2024-02-16T05:55:09;6.45;;;5.85;;
18720;SDS011;9489;50.948;3.114;2024-02-16T05:57:35;6.25;;;5.47;;
18720;SDS011;9489;50.948;3.114;2024-02-16T06:00:05;6.50;;;5.80;;
18720;SDS011;9489;50.948;3.114;2024-02-16T06:02:33;6.47;;;5.78;;
18720;SDS011;9489;50.948;3.114;2024-02-16T06:04:59;5.90;;;5.40;;
18720;SDS011;9489;50.948;3.114;2024-02-16T06:07:25;7.28;;;5.82;;
18720;SDS011;9489;50.948;3.114;2024-02-16T06:09:51;6.55;;;5.93;;
18720;SDS011;9489;50.948;3.114;2024-02-16T06:12:17;7.15;;;5.70;;
18720;SDS011;9489;50.948;3.114;2024-02-16T06:14:43;5.78;;;5.28;;
18720;SDS011;9489;50.948;3.114;2024-02-16T06:17:08;5.80;;;5.30;;
18720;SDS011;9489;50.948;3.114;2024-02-16T06:19:35;6.13;;;5.20;;
18720;SDS011;9489;50.948;3.114;2024-02-16T06:22:00;6.45;;;5.43;;
18720;SDS011;9489;50.948;3.114;2024-02-16T06:24:26;6.55;;;5.50;;
18720;SDS011;9489;50.948;3.114;2024-02-16T06:26:53;6.60;;;5.93;;
18720;SDS011;9489;50.948;3.114;2024-02-16T06:29:19;8.55;;;6.32;;
18720;SDS011;9489;50.948;3.114;2024-02-16T06:31:46;6.88;;;5.95;;
18720;SDS011;9489;50.948;3.114;2024-02-16T06:34:15;7.90;;;5.90;;
18720;SDS011;9489;50.948;3.114;2024-02-16T06:36:43;9.48;;;6.22;;
18720;SDS011;9489;50.948;3.114;2024-02-16T06:39:10;10.25;;;6.25;;
18720;SDS011;9489;50.948;3.114;2024-02-16T06:41:36;6.88;;;6.03;;
18720;SDS011;9489;50.948;3.114;2024-02-16T06:44:02;9.75;;;6.30;;
18720;SDS011;9489;50.948;3.114;2024-02-16T06:46:29;6.43;;;5.90;;
18720;SDS011;9489;50.948;3.114;2024-02-16T06:48:55;7.10;;;6.32;;
18720;SDS011;9489;50.948;3.114;2024-02-16T06:51:22;6.85;;;6.18;;
18720;SDS011;9489;50.948;3.114;2024-02-16T06:53:49;7.95;;;5.57;;
18720;SDS011;9489;50.948;3.114;2024-02-16T06:56:14;7.60;;;6.35;;
18720;SDS011;9489;50.948;3.114;2024-02-16T06:58:40;6.65;;;5.90;;
18720;SDS011;9489;50.948;3.114;2024-02-16T07:01:06;8.88;;;5.93;;
18720;SDS011;9489;50.948;3.114;2024-02-16T07:03:33;8.27;;;6.75;;
18720;SDS011;9489;50.948;3.114;2024-02-16T07:06:02;7.35;;;6.63;;
18720;SDS011;9489;50.948;3.114;2024-02-16T07:08:28;7.15;;;6.45;;
18720;SDS011;9489;50.948;3.114;2024-02-16T07:10:54;7.53;;;6.72;;
18720;SDS011;9489;50.948;3.114;2024-02-16T07:13:20;7.13;;;6.43;;
18720;SDS011;9489;50.948;3.114;2024-02-16T07:15:46;9.25;;;6.93;;
18720;SDS011;9489;50.948;3.114;2024-02-16T07:18:12;7.20;;;6.50;;
18720;SDS011;9489;50.948;3.114;2024-02-16T07:20:38;8.25;;;6.32;;
18720;SDS011;9489;50.948;3.114;2024-02-16T07:23:03;7.50;;;6.03;;
18720;SDS011;9489;50.948;3.114;2024-02-16T07:25:29;7.18;;;6.47;;
18720;SDS011;9489;50.948;3.114;2024-02-16T07:27:55;7.03;;;6.32;;
18720;SDS011;9489;50.948;3.114;2024-02-16T07:30:20;8.23;;;6.88;;
18720;SDS011;9489;50.948;3.114;2024-02-16T07:32:49;8.65;;;6.55;;
18720;SDS011;9489;50.948;3.114;2024-02-16T07:35:15;6.72;;;6.13;;
18720;SDS011;9489;50.948;3.114;2024-02-16T07:37:41;6.72;;;6.13;;
18720;SDS011;9489;50.948;3.114;2024-02-16T07:40:08;7.28;;;6.50;;
18720;SDS011;9489;50.948;3.114;2024-02-16T07:42:40;10.05;;;7.47;;
18720;SDS011;9489;50.948;3.114;2024-02-16T07:45:07;7.45;;;6.32;;
18720;SDS011;9489;50.948;3.114;2024-02-16T07:47:34;9.90;;;7.60;;
18720;SDS011;9489;50.948;3.114;2024-02-16T07:50:00;7.38;;;6.68;;
18720;SDS011;9489;50.948;3.114;2024-02-16T07:52:26;8.25;;;7.40;;
18720;SDS011;9489;50.948;3.114;2024-02-16T07:54:53;9.70;;;7.43;;
18720;SDS011;9489;50.948;3.114;2024-02-16T07:57:18;8.80;;;6.82;;
18720;SDS011;9489;50.948;3.114;2024-02-16T07:59:44;7.40;;;6.70;;
18720;SDS011;9489;50.948;3.114;2024-02-16T08:02:09;9.80;;;7.03;;
18720;SDS011;9489;50.948;3.114;2024-02-16T08:04:40;8.55;;;6.97;;
18720;SDS011;9489;50.948;3.114;2024-02-16T08:07:06;11.40;;;7.22;;
18720;SDS011;9489;50.948;3.114;2024-02-16T08:09:33;9.85;;;7.82;;
18720;SDS011;9489;50.948;3.114;2024-02-16T08:12:07;8.10;;;6.93;;
18720;SDS011;9489;50.948;3.114;2024-02-16T08:14:33;7.45;;;6.75;;
18720;SDS011;9489;50.948;3.114;2024-02-16T08:16:59;17.05;;;14.70;;
18720;SDS011;9489;50.948;3.114;2024-02-16T08:19:26;8.40;;;7.03;;
18720;SDS011;9489;50.948;3.114;2024-02-16T08:22:00;8.27;;;6.43;;
18720;SDS011;9489;50.948;3.114;2024-02-16T08:24:27;8.07;;;7.20;;
18720;SDS011;9489;50.948;3.114;2024-02-16T08:26:52;8.93;;;7.50;;
18720;SDS011;9489;50.948;3.114;2024-02-16T08:29:18;9.57;;;8.60;;
18720;SDS011;9489;50.948;3.114;2024-02-16T08:31:47;14.18;;;11.23;;
18720;SDS011;9489;50.948;3.114;2024-02-16T08:34:14;12.05;;;10.00;;
18720;SDS011;9489;50.948;3.114;2024-02-16T08:36:43;14.38;;;10.57;;
18720;SDS011;9489;50.948;3.114;2024-02-16T08:39:09;14.10;;;8.55;;
18720;SDS011;9489;50.948;3.114;2024-02-16T08:41:37;10.75;;;7.80;;
18720;SDS011;9489;50.948;3.114;2024-02-16T08:44:02;8.57;;;7.13;;
18720;SDS011;9489;50.948;3.114;2024-02-16T08:46:29;10.82;;;7.82;;
18720;SDS011;9489;50.948;3.114;2024-02-16T08:48:54;11.07;;;8.40;;
18720;SDS011;9489;50.948;3.114;2024-02-16T08:51:20;14.15;;;9.48;;
18720;SDS011;9489;50.948;3.114;2024-02-16T08:53:46;14.20;;;9.18;;
18720;SDS011;9489;50.948;3.114;2024-02-16T08:56:11;14.45;;;9.27;;
18720;SDS011;9489;50.948;3.114;2024-02-16T08:58:38;11.80;;;9.50;;
18720;SDS011;9489;50.948;3.114;2024-02-16T09:01:04;11.65;;;9.32;;
18720;SDS011;9489;50.948;3.114;2024-02-16T09:03:30;11.50;;;9.57;;
18720;SDS011;9489;50.948;3.114;2024-02-16T09:06:03;12.68;;;10.18;;
18720;SDS011;9489;50.948;3.114;2024-02-16T09:08:29;12.52;;;10.23;;
18720;SDS011;9489;50.948;3.114;2024-02-16T09:10:58;13.82;;;10.13;;
18720;SDS011;9489;50.948;3.114;2024-02-16T09:13:24;13.00;;;9.65;;
18720;SDS011;9489;50.948;3.114;2024-02-16T09:15:50;10.65;;;9.57;;
18720;SDS011;9489;50.948;3.114;2024-02-16T09:18:17;17.20;;;10.75;;
18720;SDS011;9489;50.948;3.114;2024-02-16T09:20:42;16.50;;;11.85;;
18720;SDS011;9489;50.948;3.114;2024-02-16T09:23:08;13.45;;;12.07;;
18720;SDS011;9489;50.948;3.114;2024-02-16T09:25:35;14.38;;;12.63;;
18720;SDS011;9489;50.948;3.114;2024-02-16T09:28:00;13.35;;;11.82;;
18720;SDS011;9489;50.948;3.114;2024-02-16T09:30:27;20.83;;;13.60;;
18720;SDS011;9489;50.948;3.114;2024-02-16T09:32:53;13.77;;;12.25;;
18720;SDS011;9489;50.948;3.114;2024-02-16T09:35:19;17.60;;;13.57;;
18720;SDS011;9489;50.948;3.114;2024-02-16T09:37:44;16.90;;;13.43;;
18720;SDS011;9489;50.948;3.114;2024-02-16T09:40:11;18.70;;;14.63;;
18720;SDS011;9489;50.948;3.114;2024-02-16T09:42:37;16.33;;;14.07;;
18720;SDS011;9489;50.948;3.114;2024-02-16T09:45:05;16.23;;;14.52;;
18720;SDS011;9489;50.948;3.114;2024-02-16T09:47:32;19.27;;;15.32;;
18720;SDS011;9489;50.948;3.114;2024-02-16T09:49:59;16.27;;;14.50;;
18720;SDS011;9489;50.948;3.114;2024-02-16T09:52:26;19.42;;;15.80;;
18720;SDS011;9489;50.948;3.114;2024-02-16T09:54:52;18.20;;;16.30;;
18720;SDS011;9489;50.948;3.114;2024-02-16T09:57:18;21.85;;;18.92;;
18720;SDS011;9489;50.948;3.114;2024-02-16T09:59:43;18.95;;;16.20;;
18720;SDS011;9489;50.948;3.114;2024-02-16T10:02:09;20.50;;;18.23;;
18720;SDS011;9489;50.948;3.114;2024-02-16T10:04:35;21.38;;;19.30;;
18720;SDS011;9489;50.948;3.114;2024-02-16T10:07:01;21.98;;;19.73;;
18720;SDS011;9489;50.948;3.114;2024-02-16T10:09:27;23.48;;;21.05;;
18720;SDS011;9489;50.948;3.114;2024-02-16T10:11:59;23.77;;;21.27;;
18720;SDS011;9489;50.948;3.114;2024-02-16T10:14:25;26.63;;;23.67;;
18720;SDS011;9489;50.948;3.114;2024-02-16T10:17:00;26.23;;;23.70;;
18720;SDS011;9489;50.948;3.114;2024-02-16T10:19:27;25.00;;;22.33;;
18720;SDS011;9489;50.948;3.114;2024-02-16T10:22:05;25.98;;;23.30;;
18720;SDS011;9489;50.948;3.114;2024-02-16T10:24:32;26.73;;;23.98;;
18720;SDS011;9489;50.948;3.114;2024-02-16T10:26:58;25.65;;;23.15;;
18720;SDS011;9489;50.948;3.114;2024-02-16T10:29:23;23.27;;;21.10;;
18720;SDS011;9489;50.948;3.114;2024-02-16T10:31:52;22.35;;;20.10;;
18720;SDS011;9489;50.948;3.114;2024-02-16T10:34:17;18.42;;;16.52;;
18720;SDS011;9489;50.948;3.114;2024-02-16T10:36:47;15.95;;;14.32;;
18720;SDS011;9489;50.948;3.114;2024-02-16T10:39:13;13.85;;;12.48;;
18720;SDS011;9489;50.948;3.114;2024-02-16T10:41:42;12.18;;;10.98;;
18720;SDS011;9489;50.948;3.114;2024-02-16T10:44:10;11.93;;;10.73;;
18720;SDS011;9489;50.948;3.114;2024-02-16T10:46:36;10.73;;;9.82;;
18720;SDS011;9489;50.948;3.114;2024-02-16T10:49:03;11.30;;;10.20;;
18720;SDS011;9489;50.948;3.114;2024-02-16T10:51:37;9.68;;;8.68;;
18720;SDS011;9489;50.948;3.114;2024-02-16T10:54:07;10.68;;;9.60;;
18720;SDS011;9489;50.948;3.114;2024-02-16T10:56:35;9.27;;;8.38;;
18720;SDS011;9489;50.948;3.114;2024-02-16T10:59:09;9.15;;;8.13;;
18720;SDS011;9489;50.948;3.114;2024-02-16T11:01:38;9.25;;;7.32;;
18720;SDS011;9489;50.948;3.114;2024-02-16T11:04:05;8.02;;;6.38;;
18720;SDS011;9489;50.948;3.114;2024-02-16T11:09:28;5.97;;;5.38;;
18720;SDS011;9489;50.948;3.114;2024-02-16T11:11:54;6.47;;;5.88;;
18720;SDS011;9489;50.948;3.114;2024-02-16T11:14:23;7.00;;;6.30;;
18720;SDS011;9489;50.948;3.114;2024-02-16T11:16:55;6.65;;;6.15;;
18720;SDS011;9489;50.948;3.114;2024-02-16T11:19:21;6.32;;;5.72;;
18720;SDS011;9489;50.948;3.114;2024-02-16T11:22:02;7.03;;;5.70;;
18720;SDS011;9489;50.948;3.114;2024-02-16T11:24:32;7.00;;;5.53;;
18720;SDS011;9489;50.948;3.114;2024-02-16T11:27:01;6.10;;;5.47;;
18720;SDS011;9489;50.948;3.114;2024-02-16T11:29:29;6.25;;;5.65;;
18720;SDS011;9489;50.948;3.114;2024-02-16T11:31:58;6.32;;;5.72;;
18720;SDS011;9489;50.948;3.114;2024-02-16T11:34:25;7.32;;;5.82;;
18720;SDS011;9489;50.948;3.114;2024-02-16T11:37:00;7.25;;;6.50;;
18720;SDS011;9489;50.948;3.114;2024-02-16T11:39:27;9.65;;;6.57;;
18720;SDS011;9489;50.948;3.114;2024-02-16T11:42:18;6.65;;;5.97;;
18720;SDS011;9489;50.948;3.114;2024-02-16T11:44:51;5.85;;;5.45;;
18720;SDS011;9489;50.948;3.114;2024-02-16T11:47:23;6.38;;;5.85;;
18720;SDS011;9489;50.948;3.114;2024-02-16T11:50:00;8.30;;;6.40;;
18720;SDS011;9489;50.948;3.114;2024-02-16T11:52:26;6.18;;;5.68;;
18720;SDS011;9489;50.948;3.114;2024-02-16T11:54:52;6.55;;;5.07;;
18720;SDS011;9489;50.948;3.114;2024-02-16T11:57:17;5.45;;;4.95;;
18720;SDS011;9489;50.948;3.114;2024-02-16T11:59:43;5.80;;;5.28;;
18720;SDS011;9489;50.948;3.114;2024-02-16T12:02:16;5.65;;;4.45;;
18720;SDS011;9489;50.948;3.114;2024-02-16T12:04:46;5.30;;;4.80;;
18720;SDS011;9489;50.948;3.114;2024-02-16T12:07:12;5.00;;;4.53;;
18720;SDS011;9489;50.948;3.114;2024-02-16T12:09:39;4.95;;;4.45;;
18720;SDS011;9489;50.948;3.114;2024-02-16T12:12:05;4.30;;;3.90;;
18720;SDS011;9489;50.948;3.114;2024-02-16T12:14:31;4.32;;;3.63;;
18720;SDS011;9489;50.948;3.114;2024-02-16T12:16:58;4.18;;;3.50;;
18720;SDS011;9489;50.948;3.114;2024-02-16T12:19:24;4.32;;;3.67;;
18720;SDS011;9489;50.948;3.114;2024-02-16T12:21:54;4.20;;;3.78;;
18720;SDS011;9489;50.948;3.114;2024-02-16T12:24:24;3.75;;;3.45;;
18720;SDS011;9489;50.948;3.114;2024-02-16T12:26:50;4.20;;;3.47;;
18720;SDS011;9489;50.948;3.114;2024-02-16T12:29:16;3.42;;;3.13;;
18720;SDS011;9489;50.948;3.114;2024-02-16T12:31:42;3.35;;;3.00;;
18720;SDS011;9489;50.948;3.114;2024-02-16T12:34:09;4.32;;;3.08;;
18720;SDS011;9489;50.948;3.114;2024-02-16T12:36:36;4.28;;;3.90;;
18720;SDS011;9489;50.948;3.114;2024-02-16T12:39:06;4.13;;;3.83;;
18720;SDS011;9489;50.948;3.114;2024-02-16T12:41:32;4.25;;;3.88;;
18720;SDS011;9489;50.948;3.114;2024-02-16T12:43:59;4.95;;;4.53;;
18720;SDS011;9489;50.948;3.114;2024-02-16T12:46:24;6.38;;;5.85;;
18720;SDS011;9489;50.948;3.114;2024-02-16T12:48:50;7.35;;;6.65;;
18720;SDS011;9489;50.948;3.114;2024-02-16T12:51:17;4.88;;;4.47;;
18720;SDS011;9489;50.948;3.114;2024-02-16T12:53:43;4.50;;;4.20;;
18720;SDS011;9489;50.948;3.114;2024-02-16T12:56:09;4.15;;;3.85;;
18720;SDS011;9489;50.948;3.114;2024-02-16T12:58:35;3.33;;;3.13;;
18720;SDS011;9489;50.948;3.114;2024-02-16T13:01:04;2.90;;;2.70;;
18720;SDS011;9489;50.948;3.114;2024-02-16T13:03:34;2.58;;;1.90;;
18720;SDS011;9489;50.948;3.114;2024-02-16T13:06:00;2.65;;;2.20;;
18720;SDS011;9489;50.948;3.114;2024-02-16T13:08:26;2.60;;;2.38;;
18720;SDS011;9489;50.948;3.114;2024-02-16T13:10:52;2.58;;;2.00;;
18720;SDS011;9489;50.948;3.114;2024-02-16T13:13:18;2.47;;;2.28;;
18720;SDS011;9489;50.948;3.114;2024-02-16T13:15:45;2.30;;;2.03;;
18720;SDS011;9489;50.948;3.114;2024-02-16T13:18:12;2.30;;;1.95;;
18720;SDS011;9489;50.948;3.114;2024-02-16T13:20:38;2.42;;;2.00;;
18720;SDS011;9489;50.948;3.114;2024-02-16T13:23:04;2.00;;;1.80;;
18720;SDS011;9489;50.948;3.114;2024-02-16T13:25:29;3.63;;;1.98;;
18720;SDS011;9489;50.948;3.114;2024-02-16T13:27:55;3.08;;;2.20;;
18720;SDS011;9489;50.948;3.114;2024-02-16T13:30:21;3.17;;;2.22;;
18720;SDS011;9489;50.948;3.114;2024-02-16T13:32:46;3.42;;;3.08;;
18720;SDS011;9489;50.948;3.114;2024-02-16T13:35:12;4.35;;;3.85;;
18720;SDS011;9489;50.948;3.114;2024-02-16T13:37:41;3.28;;;2.97;;
18720;SDS011;9489;50.948;3.114;2024-02-16T13:40:07;2.78;;;2.17;;
18720;SDS011;9489;50.948;3.114;2024-02-16T13:42:37;3.72;;;2.20;;
18720;SDS011;9489;50.948;3.114;2024-02-16T13:45:04;4.95;;;2.30;;
18720;SDS011;9489;50.948;3.114;2024-02-16T13:47:30;3.65;;;2.30;;
18720;SDS011;9489;50.948;3.114;2024-02-16T13:49:55;3.80;;;3.10;;
18720;SDS011;9489;50.948;3.114;2024-02-16T13:52:23;7.50;;;4.35;;
18720;SDS011;9489;50.948;3.114;2024-02-16T13:54:49;3.30;;;3.00;;
18720;SDS011;9489;50.948;3.114;2024-02-16T13:57:15;3.85;;;3.08;;
18720;SDS011;9489;50.948;3.114;2024-02-16T13:59:41;4.22;;;2.70;;
18720;SDS011;9489;50.948;3.114;2024-02-16T14:02:07;2.97;;;2.78;;
18720;SDS011;9489;50.948;3.114;2024-02-16T14:04:34;6.13;;;4.15;;
18720;SDS011;9489;50.948;3.114;2024-02-16T14:07:00;4.50;;;4.10;;
18720;SDS011;9489;50.948;3.114;2024-02-16T14:09:25;4.57;;;4.28;;
18720;SDS011;9489;50.948;3.114;2024-02-16T14:11:51;6.07;;;4.60;;
18720;SDS011;9489;50.948;3.114;2024-02-16T14:14:20;5.03;;;4.28;;
18720;SDS011;9489;50.948;3.114;2024-02-16T14:16:46;5.20;;;4.70;;
18720;SDS011;9489;50.948;3.114;2024-02-16T14:19:12;5.28;;;4.80;;
18720;SDS011;9489;50.948;3.114;2024-02-16T14:21:38;7.90;;;5.40;;
18720;SDS011;9489;50.948;3.114;2024-02-16T14:24:03;6.72;;;5.95;;
18720;SDS011;9489;50.948;3.114;2024-02-16T14:26:29;6.30;;;5.63;;
18720;SDS011;9489;50.948;3.114;2024-02-16T14:28:55;10.40;;;7.95;;
18720;SDS011;9489;50.948;3.114;2024-02-16T14:31:21;7.57;;;6.25;;
18720;SDS011;9489;50.948;3.114;2024-02-16T14:33:48;5.40;;;4.90;;
18720;SDS011;9489;50.948;3.114;2024-02-16T14:36:14;4.80;;;4.30;;
18720;SDS011;9489;50.948;3.114;2024-02-16T14:38:39;4.95;;;3.85;;
18720;SDS011;9489;50.948;3.114;2024-02-16T14:41:05;5.85;;;4.05;;
18720;SDS011;9489;50.948;3.114;2024-02-16T14:43:31;4.28;;;3.88;;
18720;SDS011;9489;50.948;3.114;2024-02-16T14:45:58;4.20;;;3.90;;
18720;SDS011;9489;50.948;3.114;2024-02-16T14:48:24;4.22;;;3.83;;
18720;SDS011;9489;50.948;3.114;2024-02-16T14:50:50;4.53;;;4.10;;
18720;SDS011;9489;50.948;3.114;2024-02-16T14:53:18;6.88;;;4.15;;
18720;SDS011;9489;50.948;3.114;2024-02-16T14:55:47;4.90;;;3.97;;
18720;SDS011;9489;50.948;3.114;2024-02-16T14:58:15;4.50;;;3.50;;